Terminal Aerodrome Forecast
Issued by NWS Central Illinois

Home | Current Version | Previous Version | Text Only | Print | Product List | Glossary On
Versions: 1 2 3 4 5 6 7 8 9 10 11 12 13 14 15 16
000
FTUS43 KILX 131200 AAA
TAFSPI
TAF AMD
KSPI 131251Z 1313/1412 26006KT P6SM -RA SCT025 OVC040
      TEMPO 1313/1315 BKN025
     FM131500 31006KT P6SM SCT040 BKN100
     FM132100 VRB05KT P6SM SCT050
     FM140500 VRB04KT P6SM SKC=

USA.gov is the U.S. government's official web portal to all federal, state and local government web resources and services.